Valgardena — ICKG — position and weather

sailwx.info

Track history (hours):
 
Tides and Currents Weather Stations Pressure Air Temp Water Temp Dewpoint Dewpoint Depression Visibility Wind Speed Wind Dir Waves Ship Positions

Valgardena

Last reported at 2018-Apr-22 13:54 UTC. Time now 2018-Apr-22 20:06 UTC.
Position N 37°44' E 024°20'.

Length 184 m; draft 7.5 m.

Type: Ship. MMSI: 247243800.

Date/timePositionNaut miles runAvg speedWind from/ knotsBaromVisibWave heightAir tempDewpointWater temp
2018-Apr-22 13:54N 37°44' E 024°20'1111.6
2018-Apr-22 12:59N 37°36' E 024°11'44210.9
2018-Apr-20 20:23N 36°34' E 015°02'512.5
2018-Apr-20 19:58N 36°34' E 014°55'613.0
2018-Apr-20 19:30N 36°34' E 014°48'612.6
2018-Apr-20 19:00N 36°37' E 014°40'713.4
2018-Apr-20 18:30N 36°40' E 014°33'613.0
2018-Apr-20 18:00N 36°43' E 014°26'713.7
2018-Apr-20 17:31N 36°47' E 014°19'612.7
2018-Apr-20 17:00N 36°50' E 014°12'713.2
2018-Apr-20 16:30N 36°54' E 014°06'612.4
2018-Apr-20 16:00N 36°57' E 013°59'612.7
2018-Apr-20 15:30N 37°00' E 013°52'612.7
2018-Apr-20 15:00N 37°03' E 013°45'612.9
2018-Apr-20 14:30N 37°06' E 013°38'713.1
2018-Apr-20 13:58N 37°10' E 013°30'22512.7
2018-Apr-19 20:13N 38°38' E 009°08'312.5
2018-Apr-19 20:01N 38°39' E 009°05'912.9
2018-Apr-19 19:18N 38°43' E 008°54'413.0
2018-Apr-19 19:00N 38°45' E 008°50'  
Track history (hours):
 
Tides and Currents Weather Stations Pressure Air Temp Water Temp Dewpoint Dewpoint Depression Visibility Wind Speed Wind Dir Waves Ship Positions

Valgardena

Last reported at 2018-Apr-22 13:54 UTC. Time now 2018-Apr-22 20:06 UTC.
Position N 37°44' E 024°20'.

Length 184 m; draft 7.5 m.

Type: Ship. MMSI: 247243800.

Date/timePositionNaut miles runAvg speedWind from/ knotsBaromVisibWave heightAir tempDewpointWater temp
2018-Apr-22 13:54N 37°44' E 024°20'1111.6
2018-Apr-22 12:59N 37°36' E 024°11'44210.9
2018-Apr-20 20:23N 36°34' E 015°02'512.5
2018-Apr-20 19:58N 36°34' E 014°55'613.0
2018-Apr-20 19:30N 36°34' E 014°48'612.6
2018-Apr-20 19:00N 36°37' E 014°40'713.4
2018-Apr-20 18:30N 36°40' E 014°33'613.0
2018-Apr-20 18:00N 36°43' E 014°26'713.7
2018-Apr-20 17:31N 36°47' E 014°19'612.7
2018-Apr-20 17:00N 36°50' E 014°12'713.2
2018-Apr-20 16:30N 36°54' E 014°06'612.4
2018-Apr-20 16:00N 36°57' E 013°59'612.7
2018-Apr-20 15:30N 37°00' E 013°52'612.7
2018-Apr-20 15:00N 37°03' E 013°45'612.9
2018-Apr-20 14:30N 37°06' E 013°38'713.1
2018-Apr-20 13:58N 37°10' E 013°30'22512.7
2018-Apr-19 20:13N 38°38' E 009°08'312.5
2018-Apr-19 20:01N 38°39' E 009°05'912.9
2018-Apr-19 19:18N 38°43' E 008°54'413.0
2018-Apr-19 19:00N 38°45' E 008°50'  

Dump ship's entire track history